Sibiu, Rumänien

02:09 PM EEST am 26. März 2017 (GMT +0300)
Miercurea Sibiului | | Change Station

Höhe 981 ft 45.89 °N, 23.80 °E | Updated 3 minutes ago

Teils Wolkig
Teils Wolkig
47.1 °F
gefühlte 47 °F
N
1.5
Wind Wechselnd Wind aus Süd-Südost
Gusts 3.1 mph

Heute
Max. -- | schwach -- °F
--% Regenrisiko
Gestern
Max. -- | schwach -- °F
Precip. -- inch
Druck 30.01 inch
Sichtweite 6.2 Meilen
Wolken Few 3600 ft
Teils Wolkig 4500 ft
Windchill 47 °F
Taupunkt 37 °F
Feuchtigkeit 68%
Regen 0.24 inch
Schneehöhe Nicht verfügbar..
7:14 AM 7:43 PM
Letztes Viertel, 4% visible
METAR LRTM 261100Z 09010KT 050V120 9999 FEW036CB SCT045 08/00 Q1016
Druck 30.01 inch
Sichtweite 6.2 Meilen
Wolken Few 3600 ft
Teils Wolkig 4500 ft
Windchill 47 °F
Taupunkt 37 °F
Feuchtigkeit 68%
Regen 0.24 inch
Schneehöhe Nicht verfügbar..
7:14 AM 7:43 PM
Letztes Viertel, 4% visible
METAR LRTM 261100Z 09010KT 050V120 9999 FEW036CB SCT045 08/00 Q1016

Get Severe Weather Alerts

Thanks for signing up!

Be on the lookout for a verification email in your inbox.

You'll start receiving the daily forecast at 8 AM.

×

10-Day Weather Forecast

×

Almanac

Astronomie

Mar. 26, 2017 Aufgang Untergang
Genaue Zeit
Bürgerliche Dämmerung
Nautische Dämmerung
Astronomische Dämmerung
Mond
Länge des sichtbaren Lichts
Tageslänge
Tomorrow will be .
, % of the Moon is Illuminated

Heutige Rekorde

Country Highs Country Lows

Community

WunderPhotos

Upload Photos

1,962,540 Fotos hochgeladen!

WunderBlog® & News

Nearby

Luftqualität

  Luftqualität LQ Index Schadstoff
Not available.

Schneehöhe

Station Depth Höhe

Erdbebenaktivität

Stadt Distance Mag. Time & Date
Minimum magnitude displayed is 2.5.

Erdbebenaktivität

Stadt Distance Mag. Time & Date
Minimum magnitude displayed is 2.5.

küstennahe Wassertemperaturen

Ort Temperatur

Stations

Wetterstationen in der Umgebung

Stationsstandort Temp. Windchill Taupunkt Feuchtigkeit Wind Precip. Höhe Aktualisiert Art